Time;durP1;ratioP1;P1;durP2;ratioP2;P2;SDS_P1;SDS_P2;PMS_P1;PMS_P2;Temp;Humidity;BMP_temperature;BMP_pressure;BME280_temperature;BME280_humidity;BME280_pressure;Samples;Min_cycle;Max_cycle;Signal;HPM_P1;HPM_P2
2023/03/18 00:00:20;;;;;;;5.18;2.50;;;;;;;13.66;61.17;99561.63;5031409;28;20053;-62
2023/03/18 00:02:48;;;;;;;6.13;2.70;;;;;;;13.66;60.63;99561.63;5031422;28;20053;-62
2023/03/18 00:05:17;;;;;;;3.78;2.15;;;;;;;13.59;61.62;99541.88;5031427;28;20053;-61
2023/03/18 00:07:45;;;;;;;5.27;2.40;;;;;;;13.69;61.08;99534.91;5024645;28;20050;-62
2023/03/18 00:10:12;;;;;;;5.82;3.00;;;;;;;13.56;61.47;99550.97;5029700;27;20064;-61
2023/03/18 00:12:41;;;;;;;6.13;2.53;;;;;;;13.58;61.33;99563.41;5028182;28;20064;-61
2023/03/18 00:15:11;;;;;;;6.72;3.15;;;;;;;13.51;61.47;99549.25;5028315;28;20053;-60
2023/03/18 00:17:39;;;;;;;6.65;2.58;;;;;;;13.59;60.81;99541.88;5030391;28;20045;-60
2023/03/18 00:20:08;;;;;;;6.43;2.95;;;;;;;13.58;61.67;99537.44;5028607;28;20056;-60
2023/03/18 00:22:38;;;;;;;6.77;2.80;;;;;;;13.61;61.66;99542.31;5040994;27;20051;-60
2023/03/18 00:25:09;;;;;;;6.18;2.80;;;;;;;13.66;61.14;99544.84;5100826;27;20072;-60
2023/03/18 00:27:37;;;;;;;6.55;2.78;;;;;;;13.67;60.82;99545.66;5030186;27;20050;-60
2023/03/18 00:30:06;;;;;;;6.50;3.13;;;;;;;13.54;60.54;99548.53;5027577;28;20064;-60
2023/03/18 00:32:33;;;;;;;5.13;2.60;;;;;;;13.48;61.50;99547.16;5029215;28;20053;-60
2023/03/18 00:35:02;;;;;;;5.53;2.70;;;;;;;13.53;60.98;99551.69;5028193;28;20065;-60
2023/03/18 00:37:30;;;;;;;4.70;2.70;;;;;;;13.48;61.54;99552.75;5029478;28;20050;-60
2023/03/18 00:40:04;;;;;;;5.82;3.05;;;;;;;13.57;61.62;99549.81;5030827;28;20058;-60
2023/03/18 00:42:37;;;;;;;6.05;2.90;;;;;;;13.64;61.26;99540.78;5062818;27;20051;-59
2023/03/18 00:45:07;;;;;;;7.40;2.85;;;;;;;13.53;61.91;99560.09;5069313;27;20060;-59
2023/03/18 00:47:35;;;;;;;;;;;;;;;13.39;62.00;99552.91;5030568;28;20431;-60
2023/03/18 00:50:02;;;;;;;5.00;2.53;;;;;;;13.50;62.03;99542.03;5031452;28;20287;-60
2023/03/18 00:52:29;;;;;;;3.83;2.30;;;;;;;13.48;62.52;99566.75;5028582;28;20050;-60
2023/03/18 00:54:57;;;;;;;6.28;2.50;;;;;;;13.45;62.01;99555.44;5029961;28;20512;-59
2023/03/18 00:57:25;;;;;;;5.60;2.63;;;;;;;13.56;61.42;99556.56;5030733;28;20049;-59
2023/03/18 00:59:52;;;;;;;5.30;2.85;;;;;;;13.54;62.56;99553.31;5030558;28;20058;-60
2023/03/18 01:02:22;;;;;;;7.47;3.17;;;;;;;13.53;62.04;99546.09;5030683;28;20060;-59
2023/03/18 01:04:50;;;;;;;3.72;2.40;;;;;;;13.60;62.14;99552.69;5030702;28;20057;-59
2023/03/18 01:07:17;;;;;;;3.90;2.60;;;;;;;13.55;62.87;99571.72;5027552;28;20060;-59
2023/03/18 01:09:44;;;;;;;8.15;2.78;;;;;;;13.51;63.10;99554.03;5029843;28;20065;-59
2023/03/18 01:12:12;;;;;;;6.68;2.58;;;;;;;13.56;62.07;99546.16;5030338;28;20060;-59
2023/03/18 01:14:41;;;;;;;8.85;2.80;;;;;;;13.57;61.82;99542.22;5030763;28;20451;-59
2023/03/18 01:17:09;;;;;;;7.00;3.03;;;;;;;13.47;63.26;99542.72;5030233;28;20057;-59
2023/03/18 01:19:37;;;;;;;5.10;2.58;;;;;;;13.53;62.53;99535.72;5030256;28;20045;-59
2023/03/18 01:22:05;;;;;;;6.10;2.55;;;;;;;13.51;62.66;99531.66;5028742;28;20468;-59
2023/03/18 01:24:32;;;;;;;6.65;3.20;;;;;;;13.38;63.27;99550.47;5030002;28;20058;-59
2023/03/18 01:27:00;;;;;;;5.03;2.83;;;;;;;13.38;63.52;99545.69;5030228;28;20056;-59
2023/03/18 01:29:27;;;;;;;5.97;2.53;;;;;;;13.36;64.17;99539.63;5029547;28;20045;-59
2023/03/18 01:31:56;;;;;;;6.13;2.83;;;;;;;13.43;63.16;99541.81;5029674;28;20049;-59
2023/03/18 01:34:23;;;;;;;8.43;2.80;;;;;;;13.43;64.09;99553.00;5029763;28;20399;-59
2023/03/18 01:36:51;;;;;;;4.82;2.55;;;;;;;13.34;64.43;99555.97;5028681;28;20057;-60
2023/03/18 01:39:18;;;;;;;6.22;2.88;;;;;;;13.32;64.08;99563.88;5028340;28;20054;-59
2023/03/18 01:41:46;;;;;;;8.07;3.05;;;;;;;13.32;64.83;99551.91;5029493;28;20069;-59
2023/03/18 01:44:16;;;;;;;5.35;2.47;;;;;;;13.33;64.07;99553.50;5030519;28;20057;-60
2023/03/18 01:46:44;;;;;;;6.53;3.20;;;;;;;13.37;64.80;99549.63;5029407;28;20061;-60
2023/03/18 01:49:19;;;;;;;5.13;2.72;;;;;;;13.33;65.00;99553.50;5030025;28;20057;-60
2023/03/18 01:51:50;;;;;;;6.53;3.15;;;;;;;13.34;65.53;99557.94;5028673;28;20065;-60
2023/03/18 01:54:18;;;;;;;6.05;2.88;;;;;;;13.38;65.65;99567.25;5029629;28;20064;-60
2023/03/18 01:56:49;;;;;;;6.60;2.85;;;;;;;13.45;64.74;99561.03;5029531;28;20049;-60
2023/03/18 01:59:16;;;;;;;4.35;2.63;;;;;;;13.43;64.51;99580.97;5028782;28;20140;-59
2023/03/18 02:01:50;;;;;;;5.40;2.80;;;;;;;13.51;64.50;99554.03;5029426;28;20053;-60
2023/03/18 02:04:21;;;;;;;5.47;3.00;;;;;;;13.40;65.09;99556.53;5029403;28;20053;-59
2023/03/18 02:06:48;;;;;;;7.65;3.22;;;;;;;13.49;65.82;99545.19;5027642;28;20057;-59
2023/03/18 02:09:15;;;;;;;6.25;2.75;;;;;;;13.45;65.68;99547.06;5029357;28;20503;-60
2023/03/18 02:11:48;;;;;;;5.78;3.13;;;;;;;13.61;64.93;99547.91;5029507;28;20069;-60
2023/03/18 02:14:18;;;;;;;5.47;2.88;;;;;;;13.52;65.54;99548.09;5029363;28;20065;-60
2023/03/18 02:16:49;;;;;;;4.72;3.38;;;;;;;13.63;64.75;99553.97;5029092;28;20049;-60
2023/03/18 02:19:28;;;;;;;6.82;2.70;;;;;;;13.63;64.55;99562.38;5029443;28;20415;-60
2023/03/18 02:22:05;;;;;;;5.47;3.00;;;;;;;13.62;65.38;99560.72;5027472;28;20491;-60
2023/03/18 02:24:42;;;;;;;7.13;2.95;;;;;;;13.62;65.72;99559.91;5028996;28;20491;-59
2023/03/18 02:27:19;;;;;;;6.28;3.05;;;;;;;13.64;65.01;99566.78;5029292;28;20052;-59
2023/03/18 02:29:49;;;;;;;5.63;3.40;;;;;;;13.68;65.80;99575.28;5029242;28;20057;-60
2023/03/18 02:32:19;;;;;;;6.35;2.80;;;;;;;13.71;64.94;99569.78;5030404;28;20411;-60
2023/03/18 02:34:47;;;;;;;6.78;3.30;;;;;;;13.60;65.93;99563.06;5028800;28;20080;-60
2023/03/18 02:37:14;;;;;;;5.57;3.05;;;;;;;13.59;65.67;99562.25;5027748;28;20064;-59
2023/03/18 02:39:42;;;;;;;6.30;3.10;;;;;;;13.68;66.04;99550.91;5029003;28;20103;-60
2023/03/18 02:42:11;;;;;;;5.20;3.20;;;;;;;13.56;66.53;99542.56;5029216;28;20053;-60
2023/03/18 02:44:41;;;;;;;;;;;;;;;13.47;65.71;99547.50;5029502;28;20484;-60
2023/03/18 02:47:11;;;;;;;5.85;3.45;;;;;;;13.47;66.33;99536.31;5029347;28;19928;-59
2023/03/18 02:49:39;;;;;;;5.47;3.00;;;;;;;13.35;66.12;99537.19;5030427;28;20487;-60
2023/03/18 02:52:07;;;;;;;5.47;3.22;;;;;;;13.40;66.81;99542.53;5031093;27;20057;-60
2023/03/18 02:54:34;;;;;;;6.43;3.15;;;;;;;13.31;66.48;99551.09;5031344;28;20064;-60
2023/03/18 02:57:01;;;;;;;6.57;3.33;;;;;;;13.36;67.02;99548.03;5032674;28;20385;-60
2023/03/18 02:59:31;;;;;;;5.63;3.00;;;;;;;13.36;67.08;99548.03;5032601;28;20056;-61
2023/03/18 03:02:00;;;;;;;4.97;3.30;;;;;;;13.30;66.18;99552.25;5032002;28;20058;-61
2023/03/18 03:04:28;;;;;;;7.22;3.85;;;;;;;13.31;66.73;99548.28;5032634;28;20060;-60
2023/03/18 03:06:57;;;;;;;6.07;3.22;;;;;;;13.32;66.63;99552.69;5030513;27;20052;-60
2023/03/18 03:09:24;;;;;;;7.37;3.30;;;;;;;13.22;66.58;99558.75;5032371;28;20054;-60
2023/03/18 03:11:52;;;;;;;5.13;3.60;;;;;;;13.25;66.38;99565.63;5032271;28;20437;-60
2023/03/18 03:14:19;;;;;;;5.03;3.20;;;;;;;13.23;66.42;99567.97;5032012;28;20053;-60
2023/03/18 03:16:47;;;;;;;6.00;3.72;;;;;;;13.19;67.27;99565.06;5032202;28;20053;-60
2023/03/18 03:19:15;;;;;;;8.98;3.60;;;;;;;13.16;67.46;99568.56;5032321;28;20403;-61
2023/03/18 03:21:43;;;;;;;5.88;3.88;;;;;;;13.07;67.97;99571.50;5031104;27;20049;-60
2023/03/18 03:24:10;;;;;;;4.80;3.58;;;;;;;13.00;67.92;99566.53;5032530;28;20058;-61
2023/03/18 03:26:38;;;;;;;7.35;3.67;;;;;;;12.91;68.26;99560.22;5030955;27;20506;-62
2023/03/18 03:29:06;;;;;;;6.80;4.18;;;;;;;12.89;67.99;99564.56;5031567;27;20049;-62
2023/03/18 03:31:33;;;;;;;7.97;3.90;;;;;;;12.84;68.51;99571.22;5031669;28;20412;-62
2023/03/18 03:34:01;;;;;;;7.25;4.10;;;;;;;12.74;69.19;99566.91;5031971;28;20080;-62
2023/03/18 03:36:30;;;;;;;5.75;3.75;;;;;;;12.83;68.30;99577.13;5030742;28;20571;-62
2023/03/18 03:38:57;;;;;;;6.47;4.13;;;;;;;12.83;68.56;99577.13;5031889;28;20492;-62
2023/03/18 03:41:24;;;;;;;7.07;4.63;;;;;;;12.77;69.40;99584.97;5031643;28;20499;-62
2023/03/18 03:43:52;;;;;;;5.47;4.00;;;;;;;12.76;69.49;99580.53;5031749;28;20403;-61
2023/03/18 03:46:19;;;;;;;7.60;4.35;;;;;;;12.80;69.12;99589.84;5031458;28;20495;-61
2023/03/18 03:48:47;;;;;;;6.95;4.03;;;;;;;12.75;68.97;99587.31;5032014;28;20064;-62
2023/03/18 03:51:14;;;;;;;5.88;3.65;;;;;;;12.73;69.21;99582.06;5030340;28;20069;-61
2023/03/18 03:53:44;;;;;;;5.43;3.88;;;;;;;12.73;69.38;99593.22;5031378;28;20049;-62
2023/03/18 03:56:12;;;;;;;9.32;4.25;;;;;;;12.71;68.91;99591.97;5031610;28;20053;-61
2023/03/18 03:58:39;;;;;;;5.57;4.35;;;;;;;12.67;69.47;99593.81;5031608;28;20053;-61
2023/03/18 04:01:07;;;;;;;6.32;4.43;;;;;;;12.59;69.50;99598.34;5030879;28;20053;-62
2023/03/18 04:03:34;;;;;;;7.95;4.63;;;;;;;12.61;69.74;99589.63;5031289;28;20071;-62
2023/03/18 04:06:02;;;;;;;8.30;4.30;;;;;;;12.53;70.01;99597.75;5030257;27;20050;-62
2023/03/18 04:08:29;;;;;;;7.85;4.70;;;;;;;12.45;70.16;99601.50;5030772;27;20056;-65
2023/03/18 04:10:58;;;;;;;5.95;3.85;;;;;;;12.41;70.37;99608.97;5031183;28;20053;-62
2023/03/18 04:13:25;;;;;;;5.73;4.33;;;;;;;12.38;70.33;99604.06;5031709;28;20060;-62
2023/03/18 04:15:53;;;;;;;6.72;4.60;;;;;;;12.31;71.12;99603.81;5031378;28;20490;-62
2023/03/18 04:18:20;;;;;;;6.88;4.95;;;;;;;12.31;70.72;99604.63;5031499;28;20053;-62
2023/03/18 04:20:48;;;;;;;6.53;4.35;;;;;;;12.28;71.39;99610.91;5029711;27;20423;-62
2023/03/18 04:23:15;;;;;;;6.75;5.10;;;;;;;12.29;71.09;99606.16;5030980;28;20053;-62
2023/03/18 04:25:43;;;;;;;10.27;5.53;;;;;;;12.18;71.35;99609.38;5030811;28;20056;-62
2023/03/18 04:28:13;;;;;;;7.15;4.93;;;;;;;12.19;72.02;99611.00;5031537;28;20475;-62
2023/03/18 04:30:40;;;;;;;8.05;4.97;;;;;;;12.08;72.03;99614.59;5031097;28;20518;-61
2023/03/18 04:33:08;;;;;;;7.50;5.22;;;;;;;12.10;72.30;99607.50;5031997;28;20061;-61
2023/03/18 04:35:36;;;;;;;9.45;5.45;;;;;;;12.07;72.34;99610.16;5030599;28;20049;-62
2023/03/18 04:38:03;;;;;;;7.68;5.22;;;;;;;12.05;72.67;99618.06;5029424;27;20058;-61
2023/03/18 04:40:31;;;;;;;9.80;5.53;;;;;;;12.01;72.74;99623.56;5030808;28;20046;-61
2023/03/18 04:42:58;;;;;;;6.53;5.70;;;;;;;12.03;72.72;99631.56;5031071;28;20061;-61
2023/03/18 04:45:28;;;;;;;8.60;5.90;;;;;;;12.00;73.00;99633.06;5031048;28;20058;-61
2023/03/18 04:47:55;;;;;;;7.35;5.70;;;;;;;12.03;73.32;99637.13;5031099;28;20143;-61
2023/03/18 04:50:23;;;;;;;8.00;5.40;;;;;;;12.03;73.14;99631.56;5030778;28;20078;-61
2023/03/18 04:52:51;;;;;;;7.53;5.30;;;;;;;11.98;73.29;99639.00;5029816;27;20427;-60
2023/03/18 04:55:20;;;;;;;8.38;5.40;;;;;;;12.00;73.34;99630.28;5030753;28;20057;-62
2023/03/18 04:57:49;;;;;;;8.52;5.25;;;;;;;12.01;72.96;99637.50;5030861;28;20053;-61
2023/03/18 05:00:20;;;;;;;10.18;6.30;;;;;;;11.94;73.64;99638.03;5030260;28;20403;-61
2023/03/18 05:02:49;;;;;;;7.20;4.88;;;;;;;12.02;72.55;99638.31;5030162;28;20049;-61
2023/03/18 05:05:17;;;;;;;7.65;5.47;;;;;;;11.97;73.68;99642.16;5030459;28;20049;-61
2023/03/18 05:07:44;;;;;;;10.25;5.80;;;;;;;12.00;73.09;99640.63;5028265;28;20388;-61
2023/03/18 05:10:12;;;;;;;8.80;5.90;;;;;;;12.03;73.25;99639.94;5030310;28;20052;-62
2023/03/18 05:12:39;;;;;;;8.90;5.53;;;;;;;12.05;73.29;99640.41;5030234;28;20061;-62
2023/03/18 05:15:07;;;;;;;8.27;5.45;;;;;;;12.10;72.98;99638.22;5029987;28;20064;-62
2023/03/18 05:17:35;;;;;;;10.30;5.60;;;;;;;12.13;72.92;99647.88;5030409;28;20054;-62
2023/03/18 05:20:04;;;;;;;7.57;5.15;;;;;;;12.16;72.77;99634.03;5030335;28;20056;-62
2023/03/18 05:22:31;;;;;;;8.48;5.05;;;;;;;12.19;72.58;99640.91;5027858;28;20064;-62
2023/03/18 05:24:58;;;;;;;8.38;4.68;;;;;;;12.24;72.64;99640.69;5010736;28;20053;-62
2023/03/18 05:27:27;;;;;;;7.45;4.90;;;;;;;12.35;72.30;99643.84;5010422;28;20060;-61
2023/03/18 05:29:54;;;;;;;7.13;4.97;;;;;;;12.43;71.80;99648.53;5010329;28;20076;-62
2023/03/18 05:32:22;;;;;;;7.68;5.25;;;;;;;12.40;71.84;99643.63;5010419;28;20049;-62
2023/03/18 05:34:49;;;;;;;7.72;5.05;;;;;;;12.45;71.77;99642.56;5010139;28;20069;-62
2023/03/18 05:37:18;;;;;;;10.07;5.00;;;;;;;12.55;70.97;99642.94;5021527;28;20061;-62
2023/03/18 05:39:45;;;;;;;6.53;4.45;;;;;;;12.58;70.72;99636.66;5029604;28;20053;-62
2023/03/18 05:42:13;;;;;;;7.68;5.45;;;;;;;12.63;70.77;99654.34;5029867;28;20054;-61
2023/03/18 05:44:41;;;;;;;6.30;4.35;;;;;;;12.71;70.36;99648.66;5029962;28;20068;-61
2023/03/18 05:47:08;;;;;;;7.20;4.65;;;;;;;12.67;70.05;99647.72;5030153;28;20064;-62
2023/03/18 05:49:36;;;;;;;7.05;5.00;;;;;;;12.61;70.58;99642.72;5030093;28;20054;-60
2023/03/18 05:52:03;;;;;;;6.18;4.68;;;;;;;12.74;70.10;99649.91;5028561;28;20061;-60
2023/03/18 05:54:32;;;;;;;6.18;4.32;;;;;;;12.74;69.77;99653.53;5029388;28;20056;-61
2023/03/18 05:56:59;;;;;;;6.25;4.38;;;;;;;12.70;70.08;99657.38;5029780;28;20053;-61
2023/03/18 05:59:30;;;;;;;6.03;4.47;;;;;;;12.78;69.97;99659.25;5029800;28;20065;-61
2023/03/18 06:02:11;;;;;;;6.70;4.38;;;;;;;12.80;69.65;99666.09;5029906;28;20072;-62
2023/03/18 06:04:39;;;;;;;7.85;5.10;;;;;;;12.87;68.91;99659.97;5028849;28;20060;-62
2023/03/18 06:07:06;;;;;;;6.57;4.68;;;;;;;12.91;69.00;99655.25;5026140;27;20058;-62
2023/03/18 06:09:35;;;;;;;9.88;4.82;;;;;;;12.91;68.00;99666.44;5028325;28;20061;-62
2023/03/18 06:12:04;;;;;;;6.80;4.53;;;;;;;13.05;68.84;99665.28;5029318;28;20049;-62
2023/03/18 06:14:31;;;;;;;6.13;4.05;;;;;;;13.10;68.06;99662.25;5029787;28;20060;-62
2023/03/18 06:16:59;;;;;;;7.38;4.63;;;;;;;13.17;68.11;99673.66;5030024;28;20142;-62
2023/03/18 06:19:27;;;;;;;7.63;4.28;;;;;;;13.16;67.75;99672.03;5029242;28;20056;-62
2023/03/18 06:21:54;;;;;;;6.93;4.20;;;;;;;13.26;68.10;99676.34;5027933;28;20053;-62
2023/03/18 06:24:21;;;;;;;6.78;3.90;;;;;;;13.32;67.65;99680.56;5029002;28;20061;-62
2023/03/18 06:26:50;;;;;;;6.90;4.03;;;;;;;13.28;67.46;99690.78;5032855;28;20164;-62
2023/03/18 06:29:18;;;;;;;5.47;4.47;;;;;;;13.42;67.20;99680.06;5032973;28;20060;-66
2023/03/18 06:31:46;;;;;;;5.95;4.35;;;;;;;13.42;66.30;99680.06;5032481;28;20125;-62
2023/03/18 06:34:13;;;;;;;6.28;3.70;;;;;;;13.46;66.66;99691.34;5032587;28;20065;-62
2023/03/18 06:36:41;;;;;;;4.60;3.83;;;;;;;13.52;66.79;99689.94;5031350;27;20475;-62
2023/03/18 06:39:09;;;;;;;8.10;4.30;;;;;;;13.49;65.56;99693.44;5019422;28;20056;-63
2023/03/18 06:41:36;;;;;;;5.43;3.70;;;;;;;13.54;65.54;99704.38;5018540;27;20049;-62
2023/03/18 06:44:05;;;;;;;4.95;3.72;;;;;;;13.50;66.03;99703.47;5032650;28;20053;-62
2023/03/18 06:46:33;;;;;;;7.40;4.05;;;;;;;13.55;65.20;99706.84;5032425;28;20053;-62
2023/03/18 06:49:00;;;;;;;6.32;3.63;;;;;;;13.66;65.17;99711.94;5032829;28;20053;-62
2023/03/18 06:51:28;;;;;;;6.15;3.97;;;;;;;13.64;65.17;99717.88;5030798;28;20050;-62
2023/03/18 06:53:55;;;;;;;5.80;4.47;;;;;;;13.65;65.44;99711.13;5032156;28;20396;-62
2023/03/18 06:56:22;;;;;;;5.57;3.55;;;;;;;13.72;64.73;99711.34;5032064;28;20472;-62
2023/03/18 06:58:50;;;;;;;5.15;3.90;;;;;;;13.79;64.54;99717.13;5032429;28;20061;-62
2023/03/18 07:01:19;;;;;;;4.97;3.50;;;;;;;13.78;64.96;99720.31;5032518;28;20049;-63
2023/03/18 07:03:48;;;;;;;5.95;3.70;;;;;;;13.70;65.32;99715.66;5032505;28;20061;-62
2023/03/18 07:06:15;;;;;;;6.30;3.67;;;;;;;13.70;65.58;99724.06;5030213;28;20514;-62
2023/03/18 07:08:43;;;;;;;5.63;3.95;;;;;;;13.70;64.49;99721.25;5032086;27;20057;-62
2023/03/18 07:11:10;;;;;;;5.05;3.70;;;;;;;13.79;65.43;99725.53;5032287;28;20404;-62
2023/03/18 07:13:38;;;;;;;5.68;3.50;;;;;;;13.68;64.60;99732.81;5033125;28;20147;-62
2023/03/18 07:16:05;;;;;;;6.00;3.75;;;;;;;13.81;64.14;99722.38;5032144;28;20518;-62
2023/03/18 07:18:34;;;;;;;5.53;3.30;;;;;;;13.86;64.97;99732.50;5032171;28;20049;-63
2023/03/18 07:21:01;;;;;;;4.30;3.70;;;;;;;13.92;63.80;99742.28;5031364;28;20051;-62
2023/03/18 07:23:28;;;;;;;6.15;4.18;;;;;;;13.92;64.70;99743.13;5026100;27;20404;-60
2023/03/18 07:25:56;;;;;;;7.18;3.83;;;;;;;13.83;64.53;99742.44;5030724;28;20057;-60
2023/03/18 07:28:23;;;;;;;5.57;3.97;;;;;;;13.94;63.54;99740.78;5035232;27;20049;-60
2023/03/18 07:30:50;;;;;;;4.82;3.78;;;;;;;13.95;64.38;99748.00;5024817;27;20415;-61
2023/03/18 07:33:18;;;;;;;5.90;4.30;;;;;;;13.99;64.62;99745.31;5025423;28;20050;-60
2023/03/18 07:35:47;;;;;;;6.38;3.80;;;;;;;14.18;62.31;99745.47;5028259;27;20057;-61
2023/03/18 07:38:14;;;;;;;5.88;4.22;;;;;;;14.33;62.96;99748.69;5025147;28;21471;-60
2023/03/18 07:40:41;;;;;;;7.65;3.88;;;;;;;14.26;62.95;99746.50;5026458;28;20049;-60
2023/03/18 07:43:09;;;;;;;6.47;3.90;;;;;;;14.56;62.05;99748.94;5064239;27;20402;-60
2023/03/18 07:45:36;;;;;;;7.22;3.65;;;;;;;14.67;61.63;99754.84;5023013;28;20050;-60
2023/03/18 07:48:04;;;;;;;4.47;3.65;;;;;;;14.79;60.93;99749.16;5023596;28;20057;-60
2023/03/18 07:50:31;;;;;;;5.28;3.65;;;;;;;14.94;60.71;99753.94;5028029;28;20042;-60
2023/03/18 07:53:00;;;;;;;6.00;3.70;;;;;;;15.10;60.56;99755.91;5024935;28;20057;-59
2023/03/18 07:55:27;;;;;;;5.30;3.50;;;;;;;15.48;59.91;99754.44;5028789;28;20419;-60
2023/03/18 07:57:54;;;;;;;5.00;3.38;;;;;;;15.68;58.17;99758.91;5032324;27;20061;-61
2023/03/18 08:00:24;;;;;;;4.67;3.47;;;;;;;15.80;57.41;99761.63;5027508;28;20067;-60
2023/03/18 08:02:51;;;;;;;5.60;3.65;;;;;;;16.29;56.43;99759.44;5022800;28;20045;-60
2023/03/18 08:05:20;;;;;;;3.72;3.10;;;;;;;16.54;55.60;99754.31;5024956;28;20054;-59
2023/03/18 08:07:48;;;;;;;4.97;3.65;;;;;;;16.77;54.55;99759.94;5025944;27;20056;-60
2023/03/18 08:10:17;;;;;;;4.95;3.13;;;;;;;16.98;54.01;99757.53;5025909;28;20046;-60
2023/03/18 08:12:44;;;;;;;5.22;3.70;;;;;;;16.99;53.80;99767.63;5029035;28;20427;-60
2023/03/18 08:15:12;;;;;;;5.35;3.20;;;;;;;17.24;53.11;99775.69;5037977;27;20115;-60
2023/03/18 08:17:40;;;;;;;5.38;3.30;;;;;;;17.27;52.28;99774.13;5028316;28;20053;-59
2023/03/18 08:20:08;;;;;;;6.28;3.20;;;;;;;16.78;53.94;99770.03;5027711;28;20387;-59
2023/03/18 08:22:35;;;;;;;4.55;3.30;;;;;;;16.72;53.78;99782.75;5020700;27;20041;-60
2023/03/18 08:25:03;;;;;;;3.88;3.03;;;;;;;16.68;54.00;99782.69;5024366;28;20101;-60
2023/03/18 08:27:31;;;;;;;5.03;3.20;;;;;;;16.54;54.45;99783.22;5063921;27;20050;-59
2023/03/18 08:29:59;;;;;;;4.90;3.15;;;;;;;16.39;55.12;99786.94;5027057;28;20061;-60
2023/03/18 08:32:26;;;;;;;4.95;3.28;;;;;;;16.37;54.48;99792.91;5027515;28;20057;-60
2023/03/18 08:34:54;;;;;;;5.38;3.03;;;;;;;16.83;54.15;99793.03;5025989;28;20062;-60
2023/03/18 08:37:21;;;;;;;3.50;3.00;;;;;;;16.90;53.45;99797.19;5026211;28;20060;-60
2023/03/18 08:39:49;;;;;;;4.20;3.00;;;;;;;16.75;53.02;99793.25;5028047;28;20057;-59
2023/03/18 08:42:17;;;;;;;4.20;3.30;;;;;;;16.57;54.31;99801.38;5028141;28;20407;-60
2023/03/18 08:44:47;;;;;;;5.50;3.38;;;;;;;16.67;53.58;99805.56;5057287;27;20412;-59
2023/03/18 08:47:14;;;;;;;;;;;;;;;16.69;53.56;99811.63;5024179;28;20049;-60
2023/03/18 08:49:41;;;;;;;5.03;2.92;;;;;;;17.02;52.65;99803.44;5027584;28;19928;-60
2023/03/18 08:52:09;;;;;;;5.30;3.30;;;;;;;17.34;51.89;99814.44;5026172;28;20487;-59
2023/03/18 08:54:36;;;;;;;4.80;3.25;;;;;;;17.39;51.92;99804.88;5025264;28;20060;-60
2023/03/18 08:57:04;;;;;;;4.85;3.10;;;;;;;17.57;51.53;99802.34;5028113;28;20064;-60
2023/03/18 08:59:31;;;;;;;3.70;2.60;;;;;;;17.70;51.15;99805.75;5062432;27;20054;-59
2023/03/18 09:02:00;;;;;;;4.15;3.13;;;;;;;17.88;51.34;99795.59;5025428;28;20038;-59
2023/03/18 09:04:28;;;;;;;4.40;3.10;;;;;;;17.75;50.58;99799.81;5025260;27;20065;-59
2023/03/18 09:06:55;;;;;;;4.75;3.05;;;;;;;17.99;49.85;99799.34;5036002;27;20049;-60
2023/03/18 09:09:22;;;;;;;6.85;3.30;;;;;;;17.99;50.52;99805.00;5026505;28;20053;-59
2023/03/18 09:11:50;;;;;;;4.95;3.08;;;;;;;18.96;47.58;99819.47;5027253;28;20053;-60
2023/03/18 09:14:17;;;;;;;5.03;3.25;;;;;;;18.83;48.15;99811.28;5067897;27;20056;-59
2023/03/18 09:16:44;;;;;;;5.18;3.38;;;;;;;18.48;49.22;99817.31;5028488;28;20057;-59
2023/03/18 09:19:13;;;;;;;4.53;3.42;;;;;;;18.50;48.82;99812.13;5031142;28;20054;-59
2023/03/18 09:21:40;;;;;;;7.27;3.70;;;;;;;18.72;47.81;99806.72;5026001;28;20076;-60
2023/03/18 09:24:08;;;;;;;5.25;3.67;;;;;;;19.39;46.61;99806.59;5024193;28;20042;-59
2023/03/18 09:26:35;;;;;;;4.35;3.08;;;;;;;20.44;45.00;99805.25;5027239;27;20045;-60
2023/03/18 09:29:02;;;;;;;5.55;3.45;;;;;;;20.78;44.20;99817.09;5026173;27;20057;-59
2023/03/18 09:31:29;;;;;;;4.25;3.25;;;;;;;21.51;43.18;99812.38;5023435;27;20388;-59
2023/03/18 09:33:57;;;;;;;3.50;3.10;;;;;;;22.69;40.28;99815.72;5021440;28;20046;-60
2023/03/18 09:36:27;;;;;;;5.30;3.47;;;;;;;22.25;39.31;99822.00;5022512;28;20050;-60
2023/03/18 09:38:54;;;;;;;4.75;3.47;;;;;;;21.56;40.78;99821.25;5023684;28;20045;-60
2023/03/18 09:41:29;;;;;;;5.70;3.67;;;;;;;21.26;41.67;99821.66;5010228;28;20050;-59
2023/03/18 09:44:09;;;;;;;4.57;3.47;;;;;;;21.82;40.12;99825.72;5010729;28;20065;-60
2023/03/18 09:46:46;;;;;;;4.47;3.88;;;;;;;22.73;39.27;99818.53;5023416;28;20049;-60
2023/03/18 09:49:27;;;;;;;4.95;3.63;;;;;;;22.70;38.55;99813.72;5028064;28;20046;-60
2023/03/18 09:52:08;;;;;;;4.13;3.00;;;;;;;22.79;38.35;99818.94;5027809;28;20502;-60
2023/03/18 09:54:40;;;;;;;4.18;2.75;;;;;;;22.27;38.88;99814.69;5029319;28;20053;-60
2023/03/18 09:57:17;;;;;;;4.07;2.97;;;;;;;24.52;34.91;99821.91;5029838;28;20049;-60
2023/03/18 09:59:47;;;;;;;4.05;2.70;;;;;;;25.83;33.42;99808.13;5028356;28;20060;-60
2023/03/18 10:02:23;;;;;;;5.10;3.00;;;;;;;26.45;32.24;99811.47;5029865;28;20053;-60
2023/03/18 10:04:56;;;;;;;3.10;2.30;;;;;;;28.93;28.63;99803.88;5029495;28;20068;-59
2023/03/18 10:07:31;;;;;;;3.63;2.30;;;;;;;30.10;26.49;99788.16;5029154;27;20056;-60
2023/03/18 10:10:03;;;;;;;3.17;2.45;;;;;;;31.90;24.72;99802.00;5029293;28;20057;-59
2023/03/18 10:12:34;;;;;;;3.88;2.45;;;;;;;31.53;24.74;99794.09;5030481;28;20056;-60
2023/03/18 10:15:13;;;;;;;3.47;2.00;;;;;;;32.20;24.89;99794.53;5029376;28;20057;-60
2023/03/18 10:17:44;;;;;;;4.65;1.90;;;;;;;32.26;23.57;99806.22;5027796;28;20054;-60
2023/03/18 10:20:18;;;;;;;4.10;2.00;;;;;;;32.11;24.03;99803.19;5027591;28;20053;-60
2023/03/18 10:23:06;;;;;;;2.70;1.90;;;;;;;32.15;22.82;99792.28;5029366;28;20061;-60
2023/03/18 10:25:38;;;;;;;3.38;1.63;;;;;;;33.08;22.83;99799.50;5029890;28;20484;-60
2023/03/18 10:28:32;;;;;;;2.85;1.80;;;;;;;34.05;21.68;99791.72;5029041;28;20510;-60
2023/03/18 10:31:10;;;;;;;2.63;1.60;;;;;;;35.74;19.99;99799.66;5028307;28;20057;-58
2023/03/18 10:33:45;;;;;;;2.25;1.55;;;;;;;36.00;20.03;99791.06;5027554;28;20399;-59
2023/03/18 10:36:19;;;;;;;2.00;1.33;;;;;;;35.64;19.31;99793.22;5028693;28;20518;-59
2023/03/18 10:38:49;;;;;;;2.05;1.40;;;;;;;36.26;19.23;99785.31;5028847;28;20053;-58
2023/03/18 10:41:21;;;;;;;2.67;1.70;;;;;;;36.91;18.24;99787.03;5029234;28;20049;-59
2023/03/18 10:43:51;;;;;;;3.42;1.50;;;;;;;38.43;17.77;99784.19;5030318;28;20045;-59
2023/03/18 10:46:21;;;;;;;1.77;1.17;;;;;;;38.75;17.09;99781.88;5029895;28;20053;-59
2023/03/18 10:48:51;;;;;;;2.65;1.85;;;;;;;38.88;16.82;99784.25;5029090;28;20064;-59
2023/03/18 10:51:24;;;;;;;2.60;1.50;;;;;;;38.88;16.96;99790.88;5027670;28;20046;-59
2023/03/18 10:53:58;;;;;;;3.20;1.52;;;;;;;39.61;16.30;99780.47;5028850;28;20053;-59
2023/03/18 10:56:26;;;;;;;1.92;1.30;;;;;;;39.66;16.02;99782.59;5028454;28;20053;-58
2023/03/18 10:58:53;;;;;;;2.50;1.10;;;;;;;39.74;15.72;99783.63;5028831;28;20064;-59
2023/03/18 11:01:23;;;;;;;2.45;1.13;;;;;;;39.91;15.82;99778.56;5028833;28;20053;-59
2023/03/18 11:03:54;;;;;;;3.05;1.20;;;;;;;40.78;14.89;99769.56;5028899;28;20049;-59
2023/03/18 11:06:25;;;;;;;2.30;1.42;;;;;;;40.12;15.40;99778.19;5027170;28;20075;-58
2023/03/18 11:09:03;;;;;;;2.50;1.30;;;;;;;37.93;16.77;99771.84;5020158;28;20068;-58
2023/03/18 11:11:33;;;;;;;2.15;1.10;;;;;;;36.89;17.57;99778.03;5029051;28;20073;-59
2023/03/18 11:14:02;;;;;;;2.80;1.42;;;;;;;37.78;17.09;99777.88;5032266;28;20049;-59
2023/03/18 11:16:34;;;;;;;2.50;1.20;;;;;;;37.39;17.72;99768.91;5031909;28;20056;-58
2023/03/18 11:19:08;;;;;;;1.80;1.10;;;;;;;37.33;17.58;99773.91;5032376;28;20049;-58
2023/03/18 11:21:37;;;;;;;1.92;1.15;;;;;;;38.33;16.99;99769.88;5029840;28;20503;-59
2023/03/18 11:24:34;;;;;;;2.75;1.30;;;;;;;39.89;15.39;99765.84;5031956;28;20049;-59
2023/03/18 11:27:03;;;;;;;1.83;1.00;;;;;;;41.24;14.85;99764.91;5031091;28;20534;-58
2023/03/18 11:29:32;;;;;;;2.17;1.10;;;;;;;43.12;13.63;99768.50;5032163;28;20483;-59
2023/03/18 11:32:01;;;;;;;3.25;1.30;;;;;;;43.64;13.39;99765.38;5031599;28;20056;-59
2023/03/18 11:34:31;;;;;;;2.53;1.50;;;;;;;42.63;13.32;99773.81;5031872;28;20056;-59
2023/03/18 11:37:03;;;;;;;1.80;1.00;;;;;;;41.06;14.86;99763.47;5030376;28;20054;-59
2023/03/18 11:39:36;;;;;;;1.70;1.00;;;;;;;43.37;13.12;99759.53;5030852;28;20053;-60
2023/03/18 11:42:17;;;;;;;2.30;1.20;;;;;;;45.35;11.92;99755.78;5031483;28;20495;-59